createdAt,value
2018-09-12T00:00:25.469Z,5.70
2018-09-12T00:02:55.451Z,5.47
2018-09-12T00:05:25.563Z,6.85
2018-09-12T00:07:56.750Z,6.40
2018-09-12T00:10:26.989Z,8.53
2018-09-12T00:12:57.448Z,7.62
2018-09-12T00:15:28.975Z,6.97
2018-09-12T00:17:59.113Z,8.95
2018-09-12T00:20:29.236Z,6.83
2018-09-12T00:22:59.298Z,8.40
2018-09-12T00:25:29.530Z,6.40
2018-09-12T00:27:59.569Z,11.50
2018-09-12T00:30:29.705Z,10.35
2018-09-12T00:32:59.982Z,8.35
2018-09-12T00:35:30.164Z,12.18
2018-09-12T00:38:01.637Z,8.53
2018-09-12T00:40:33.302Z,6.85
2018-09-12T00:43:03.374Z,7.55
2018-09-12T00:45:34.087Z,9.20
2018-09-12T00:50:43.964Z,6.70
2018-09-12T00:53:14.174Z,8.35
2018-09-12T00:55:44.253Z,7.35
2018-09-12T00:58:14.840Z,9.05
2018-09-12T01:00:45.195Z,9.00
2018-09-12T01:03:16.699Z,7.40
2018-09-12T01:05:49.901Z,7.10
2018-09-12T01:08:20.704Z,6.53
2018-09-12T01:10:51.013Z,6.75
2018-09-12T01:13:21.377Z,5.42
2018-09-12T01:15:51.559Z,8.18
2018-09-12T01:18:22.416Z,7.87
2018-09-12T01:20:52.937Z,4.85
2018-09-12T01:23:24.795Z,7.35
2018-09-12T01:25:55.828Z,7.55
2018-09-12T01:28:25.897Z,6.83
2018-09-12T01:30:56.579Z,6.43
2018-09-12T01:33:26.985Z,5.10
2018-09-12T01:35:57.836Z,5.83
2018-09-12T01:38:27.933Z,8.40
2018-09-12T01:40:59.581Z,6.78
2018-09-12T01:43:30.215Z,6.65
2018-09-12T01:46:00.303Z,6.60
2018-09-12T01:48:30.726Z,9.00
2018-09-12T01:51:00.867Z,8.15
2018-09-12T01:53:32.435Z,7.30
2018-09-12T01:56:02.563Z,7.22
2018-09-12T01:58:32.559Z,6.83
2018-09-12T02:01:02.677Z,6.62
2018-09-12T02:03:33.731Z,7.75
2018-09-12T02:06:04.153Z,8.23
2018-09-12T02:08:35.285Z,7.00
2018-09-12T02:11:08.167Z,9.13
2018-09-12T02:13:40.049Z,7.12
2018-09-12T02:16:10.143Z,9.20
2018-09-12T02:18:40.491Z,7.40
2018-09-12T02:21:11.073Z,6.45
2018-09-12T02:23:41.456Z,8.68
2018-09-12T02:26:11.699Z,10.10
2018-09-12T02:28:42.606Z,6.37
2018-09-12T02:31:14.103Z,7.45
2018-09-12T02:33:44.279Z,7.45
2018-09-12T02:36:19.643Z,8.40
2018-09-12T02:38:56.437Z,6.92
2018-09-12T02:41:27.954Z,8.93
2018-09-12T02:43:58.383Z,7.37
2018-09-12T02:46:28.435Z,9.23
2018-09-12T02:48:58.533Z,7.20
2018-09-12T02:51:29.617Z,6.35
2018-09-12T02:54:00.414Z,7.67
2018-09-12T02:56:31.434Z,5.47
2018-09-12T02:59:01.816Z,8.23
2018-09-12T03:01:32.582Z,6.75
2018-09-12T03:04:19.671Z,9.25
2018-09-12T03:06:50.212Z,8.93
2018-09-12T03:09:20.258Z,6.85
2018-09-12T03:11:51.080Z,9.78
2018-09-12T03:14:21.586Z,8.20
2018-09-12T03:16:51.951Z,7.05
2018-09-12T03:19:22.053Z,8.20
2018-09-12T03:21:59.707Z,7.55
2018-09-12T03:24:31.620Z,6.58
2018-09-12T03:27:01.709Z,7.67
2018-09-12T03:29:32.762Z,7.87
2018-09-12T03:32:02.961Z,9.95
2018-09-12T03:34:33.829Z,8.15
2018-09-12T03:37:04.250Z,9.87
2018-09-12T03:39:34.319Z,6.90
2018-09-12T03:42:04.429Z,6.87
2018-09-12T03:44:36.314Z,5.90
2018-09-12T03:47:06.449Z,9.23
2018-09-12T03:49:36.585Z,8.73
2018-09-12T03:52:07.470Z,9.23
2018-09-12T03:54:37.776Z,5.87
2018-09-12T03:57:08.958Z,7.33
2018-09-12T03:59:38.967Z,5.53
2018-09-12T04:02:09.044Z,8.20
2018-09-12T04:04:39.463Z,6.58
2018-09-12T04:07:10.582Z,6.55
2018-09-12T04:09:41.447Z,7.00
2018-09-12T04:12:11.541Z,6.83
2018-09-12T04:14:42.582Z,5.33
2018-09-12T04:17:14.545Z,7.53
2018-09-12T04:19:44.578Z,8.70
2018-09-12T04:22:14.673Z,9.85
2018-09-12T04:24:45.333Z,7.55
2018-09-12T04:27:15.533Z,6.87
2018-09-12T04:29:45.582Z,7.05
2018-09-12T04:32:17.653Z,8.45
2018-09-12T04:34:47.671Z,11.40
2018-09-12T04:37:17.788Z,9.00
2018-09-12T04:39:47.807Z,7.30
2018-09-12T04:42:17.996Z,6.65
2018-09-12T04:44:48.224Z,7.08
2018-09-12T04:47:18.762Z,6.92
2018-09-12T04:49:50.117Z,8.00
2018-09-12T04:52:20.676Z,9.95
2018-09-12T04:54:50.842Z,7.90
2018-09-12T04:57:21.821Z,7.47
2018-09-12T04:59:52.068Z,7.70
2018-09-12T05:02:22.122Z,11.48
2018-09-12T05:04:52.892Z,9.13
2018-09-12T05:07:23.598Z,7.53
2018-09-12T05:09:53.782Z,9.53
2018-09-12T05:12:24.604Z,11.12
2018-09-12T05:14:54.642Z,13.13
2018-09-12T05:17:25.582Z,7.53
2018-09-12T05:19:55.742Z,7.28
2018-09-12T05:22:26.162Z,11.50
2018-09-12T05:24:56.432Z,10.32
2018-09-12T05:27:27.111Z,11.88
2018-09-12T05:30:01.738Z,11.60
2018-09-12T05:32:32.740Z,14.70
2018-09-12T05:35:06.234Z,14.18
2018-09-12T05:37:37.721Z,12.60
2018-09-12T05:40:08.181Z,18.75
2018-09-12T05:42:38.576Z,18.70
2018-09-12T05:45:08.966Z,17.17
2018-09-12T05:47:39.678Z,18.17
2018-09-12T05:50:10.246Z,14.95
2018-09-12T05:52:41.544Z,10.80
2018-09-12T05:55:11.686Z,14.70
2018-09-12T05:57:55.408Z,19.57
2018-09-12T06:00:28.191Z,21.02
2018-09-12T06:02:58.784Z,17.42
2018-09-12T06:05:28.930Z,22.75
2018-09-12T06:07:59.836Z,20.90
2018-09-12T06:10:32.078Z,20.23
2018-09-12T06:13:02.659Z,18.25
2018-09-12T06:15:34.122Z,19.77
2018-09-12T06:18:04.516Z,16.32
2018-09-12T06:20:36.123Z,14.68
2018-09-12T06:23:07.313Z,16.55
2018-09-12T06:25:38.376Z,13.18
2018-09-12T06:28:08.496Z,11.20
2018-09-12T06:30:39.332Z,13.15
2018-09-12T06:33:09.875Z,23.65
2018-09-12T06:35:40.925Z,17.75
2018-09-12T06:38:11.763Z,16.48
2018-09-12T06:40:43.221Z,15.70
2018-09-12T06:43:13.123Z,16.60
2018-09-12T06:45:43.407Z,13.40
2018-09-12T06:48:13.497Z,10.80
2018-09-12T06:50:43.976Z,12.85
2018-09-12T06:53:14.772Z,14.98
2018-09-12T06:55:45.033Z,12.03
2018-09-12T06:58:16.231Z,11.15
2018-09-12T07:00:47.774Z,14.25
2018-09-12T07:03:17.889Z,11.20
2018-09-12T07:05:47.993Z,11.50
2018-09-12T07:08:18.158Z,14.35
2018-09-12T07:10:49.221Z,13.62
2018-09-12T07:13:19.408Z,16.97
2018-09-12T07:15:51.261Z,10.60
2018-09-12T07:18:21.415Z,12.40
2018-09-12T07:20:52.894Z,13.68
2018-09-12T07:23:23.002Z,13.30
2018-09-12T07:25:53.988Z,13.50
2018-09-12T07:28:26.090Z,15.30
2018-09-12T07:30:57.960Z,9.90
2018-09-12T07:33:29.067Z,9.25
2018-09-12T07:35:59.190Z,8.55
2018-09-12T07:38:30.246Z,9.98
2018-09-12T07:41:01.038Z,13.32
2018-09-12T07:46:56.931Z,9.47
2018-09-12T07:49:31.861Z,7.62
2018-09-12T07:52:02.115Z,9.20
2018-09-12T07:54:34.223Z,8.80
2018-09-12T07:57:06.023Z,9.45
2018-09-12T07:59:36.158Z,12.23
2018-09-12T08:02:07.032Z,11.53
2018-09-12T08:04:38.391Z,9.63
2018-09-12T08:07:09.103Z,10.17
2018-09-12T08:09:39.327Z,10.55
2018-09-12T08:12:10.187Z,10.60
2018-09-12T08:14:41.289Z,11.95
2018-09-12T08:17:11.378Z,8.45
2018-09-12T08:19:41.513Z,13.83
2018-09-12T08:22:13.040Z,10.82
2018-09-12T08:24:45.057Z,10.18
2018-09-12T08:27:16.035Z,10.88
2018-09-12T08:29:48.870Z,9.40
2018-09-12T08:32:21.144Z,9.17
2018-09-12T08:35:02.050Z,14.30
2018-09-12T08:37:38.391Z,10.93
2018-09-12T08:40:08.744Z,10.95
2018-09-12T08:42:39.409Z,7.75
2018-09-12T08:45:09.827Z,8.33
2018-09-12T08:47:41.325Z,8.55
2018-09-12T08:50:11.889Z,10.48
2018-09-12T08:52:42.692Z,7.10
2018-09-12T08:55:14.806Z,8.40
2018-09-12T08:57:45.048Z,7.83
2018-09-12T09:00:16.295Z,8.40
2018-09-12T09:02:48.728Z,6.95
2018-09-12T09:05:19.872Z,8.03
2018-09-12T09:07:52.208Z,6.85
2018-09-12T09:10:23.525Z,5.17
2018-09-12T09:12:54.870Z,5.53
2018-09-12T09:15:28.254Z,6.33
2018-09-12T09:17:59.406Z,5.60
2018-09-12T09:20:30.053Z,6.05
2018-09-12T09:23:06.337Z,6.83
2018-09-12T09:25:43.244Z,7.53
2018-09-12T09:28:15.474Z,6.75
2018-09-12T09:30:47.472Z,6.15
2018-09-12T09:33:19.046Z,7.42
2018-09-12T09:35:50.300Z,7.17
2018-09-12T09:38:20.564Z,6.15
2018-09-12T09:40:50.904Z,5.80
2018-09-12T09:43:21.288Z,6.72
2018-09-12T09:45:51.643Z,5.62
2018-09-12T09:48:23.478Z,3.70
2018-09-12T09:50:54.048Z,7.93
2018-09-12T09:53:24.204Z,7.05
2018-09-12T09:55:54.343Z,5.73
2018-09-12T09:58:27.838Z,7.10
2018-09-12T10:01:07.188Z,8.40
2018-09-12T10:03:46.676Z,5.83
2018-09-12T10:06:21.203Z,8.00
2018-09-12T10:08:56.026Z,6.15
2018-09-12T10:11:31.345Z,4.83
2018-09-12T10:14:08.756Z,4.03
2018-09-12T10:16:40.849Z,5.40
2018-09-12T10:19:15.389Z,4.72
2018-09-12T10:21:46.921Z,5.53
2018-09-12T10:24:18.481Z,4.70
2018-09-12T10:26:49.317Z,5.67
2018-09-12T10:29:22.074Z,4.80
2018-09-12T10:31:59.112Z,5.03
2018-09-12T10:34:29.371Z,5.95
2018-09-12T10:37:02.166Z,4.78
2018-09-12T10:39:32.917Z,4.85
2018-09-12T10:42:07.400Z,3.90
2018-09-12T10:44:37.609Z,3.93
2018-09-12T10:47:08.439Z,3.87
2018-09-12T10:49:40.825Z,5.93
2018-09-12T10:52:11.614Z,7.40
2018-09-12T10:54:41.925Z,6.37
2018-09-12T10:57:11.895Z,5.27
2018-09-12T10:59:42.827Z,4.25
2018-09-12T11:02:13.461Z,4.47
2018-09-12T11:04:44.059Z,6.53
2018-09-12T11:07:15.490Z,5.00
2018-09-12T11:09:45.543Z,3.40
2018-09-12T11:12:15.712Z,3.85
2018-09-12T11:14:46.341Z,3.53
2018-09-12T11:17:16.523Z,4.87
2018-09-12T11:19:46.710Z,3.95
2018-09-12T11:22:33.158Z,4.83
2018-09-12T11:25:03.985Z,4.72
2018-09-12T11:27:36.055Z,5.60
2018-09-12T11:30:06.872Z,4.15
2018-09-12T11:32:47.991Z,6.63
2018-09-12T11:35:19.673Z,4.13
2018-09-12T11:37:49.809Z,3.83
2018-09-12T11:40:20.033Z,3.33
2018-09-12T11:42:50.093Z,4.53
2018-09-12T11:45:21.239Z,3.83
2018-09-12T11:47:51.913Z,3.57
2018-09-12T11:50:24.757Z,5.58
2018-09-12T11:52:54.953Z,6.17
2018-09-12T11:55:25.841Z,4.20
2018-09-12T11:57:56.592Z,3.40
2018-09-12T12:00:27.403Z,3.52
2018-09-12T12:02:57.690Z,4.93
2018-09-12T12:05:29.639Z,3.92
2018-09-12T12:08:00.087Z,5.10
2018-09-12T12:10:31.016Z,3.00
2018-09-12T12:13:01.142Z,3.10
2018-09-12T12:15:32.959Z,4.00
2018-09-12T12:18:04.107Z,3.27
2018-09-12T12:20:35.141Z,2.93
2018-09-12T12:23:07.131Z,7.05
2018-09-12T12:25:37.365Z,2.97
2018-09-12T12:28:07.521Z,3.08
2018-09-12T12:30:37.972Z,4.15
2018-09-12T12:33:08.199Z,2.58
2018-09-12T12:35:38.287Z,2.72
2018-09-12T12:38:09.374Z,4.00
2018-09-12T12:40:41.239Z,4.00
2018-09-12T12:43:15.287Z,3.00
2018-09-12T12:45:47.725Z,3.98
2018-09-12T12:48:20.145Z,4.45
2018-09-12T12:50:51.112Z,3.87
2018-09-12T12:53:21.466Z,5.17
2018-09-12T12:55:54.080Z,2.80
2018-09-12T12:58:25.428Z,3.47
2018-09-12T13:00:57.764Z,2.80
2018-09-12T13:03:29.038Z,2.90
2018-09-12T13:05:59.514Z,4.97
2018-09-12T13:08:29.614Z,3.20
2018-09-12T13:11:00.008Z,5.05
2018-09-12T13:13:30.210Z,3.33
2018-09-12T13:16:01.510Z,2.65
2018-09-12T13:18:31.674Z,3.15
2018-09-12T13:21:03.234Z,4.62
2018-09-12T13:23:33.352Z,5.30
2018-09-12T13:26:06.130Z,2.42
2018-09-12T13:28:36.334Z,3.55
2018-09-12T13:31:12.362Z,4.70
2018-09-12T13:33:43.345Z,3.83
2018-09-12T13:36:15.129Z,3.30
2018-09-12T13:38:45.947Z,3.33
2018-09-12T13:41:16.046Z,3.15
2018-09-12T13:43:48.393Z,3.87
2018-09-12T13:46:18.318Z,3.20
2018-09-12T13:48:49.714Z,5.05
2018-09-12T13:51:20.312Z,4.08
2018-09-12T13:53:51.207Z,2.90
2018-09-12T13:56:21.721Z,5.30
2018-09-12T13:58:53.947Z,3.20
2018-09-12T14:01:26.765Z,3.42
2018-09-12T14:03:58.884Z,2.50
2018-09-12T14:06:31.603Z,3.00
2018-09-12T14:09:03.059Z,5.12
2018-09-12T14:11:34.064Z,2.80
2018-09-12T14:14:04.633Z,3.10
2018-09-12T14:16:36.049Z,3.83
2018-09-12T14:19:06.301Z,4.05
2018-09-12T14:21:38.260Z,2.10
2018-09-12T14:24:09.641Z,4.08
2018-09-12T14:26:41.027Z,3.05
2018-09-12T14:29:11.194Z,3.22
2018-09-12T14:31:41.923Z,4.20
2018-09-12T14:34:12.049Z,5.53
2018-09-12T14:36:43.176Z,2.92
2018-09-12T14:39:14.378Z,3.75
2018-09-12T14:41:46.173Z,3.62
2018-09-12T14:44:17.663Z,4.08
2018-09-12T14:46:47.838Z,4.20
2018-09-12T14:49:19.769Z,3.72
2018-09-12T14:51:52.319Z,4.25
2018-09-12T14:54:22.362Z,3.67
2018-09-12T14:56:52.613Z,3.08
2018-09-12T14:59:23.837Z,4.25
2018-09-12T15:01:55.387Z,3.17
2018-09-12T15:04:26.647Z,3.80
2018-09-12T15:06:57.339Z,5.45
2018-09-12T15:09:28.587Z,4.53
2018-09-12T15:12:00.496Z,3.27
2018-09-12T15:14:31.346Z,5.22
2018-09-12T15:17:02.717Z,3.80
2018-09-12T15:19:39.321Z,4.28
2018-09-12T15:22:09.934Z,6.67
2018-09-12T15:24:40.722Z,3.80
2018-09-12T15:27:11.514Z,5.28
2018-09-12T15:29:42.691Z,2.83
2018-09-12T15:32:14.173Z,3.20
2018-09-12T15:34:45.245Z,3.98
2018-09-12T15:37:17.679Z,3.37
2018-09-12T15:39:49.255Z,5.08
2018-09-12T15:42:20.336Z,8.73
2018-09-12T15:44:51.478Z,6.73
2018-09-12T15:47:21.870Z,8.90
2018-09-12T15:49:53.056Z,6.65
2018-09-12T15:52:24.106Z,3.83
2018-09-12T15:54:58.631Z,4.62
2018-09-12T15:57:28.813Z,5.40
2018-09-12T15:59:58.908Z,6.25
2018-09-12T16:02:30.276Z,11.88
2018-09-12T16:05:01.448Z,4.10
2018-09-12T16:07:31.868Z,3.35
2018-09-12T16:10:02.006Z,4.03
2018-09-12T16:12:33.312Z,4.25
2018-09-12T16:15:04.607Z,3.27
2018-09-12T16:17:34.789Z,4.10
2018-09-12T16:20:05.666Z,19.48
2018-09-12T16:22:36.115Z,63.35
2018-09-12T16:25:07.536Z,17.73
2018-09-12T16:27:38.182Z,4.92
2018-09-12T16:30:08.880Z,15.90
2018-09-12T16:32:39.106Z,6.70
2018-09-12T16:35:10.364Z,3.95
2018-09-12T16:37:42.562Z,4.00
2018-09-12T16:40:12.816Z,3.40
2018-09-12T16:42:43.912Z,4.30
2018-09-12T16:45:13.974Z,4.50
2018-09-12T16:47:44.250Z,4.03
2018-09-12T16:50:15.347Z,5.42
2018-09-12T16:52:45.592Z,5.20
2018-09-12T16:55:16.166Z,2.90
2018-09-12T16:57:48.846Z,4.15
2018-09-12T17:00:19.073Z,3.97
2018-09-12T17:02:49.771Z,3.90
2018-09-12T17:05:20.167Z,4.08
2018-09-12T17:07:51.356Z,6.60
2018-09-12T17:10:22.252Z,3.98
2018-09-12T17:12:52.370Z,4.83
2018-09-12T17:15:23.902Z,5.20
2018-09-12T17:17:56.131Z,5.28
2018-09-12T17:20:27.864Z,4.15
2018-09-12T17:22:58.959Z,5.28
2018-09-12T17:25:30.308Z,4.42
2018-09-12T17:28:00.574Z,5.15
2018-09-12T17:30:30.966Z,7.35
2018-09-12T17:33:02.469Z,3.60
2018-09-12T17:35:34.877Z,6.50
2018-09-12T17:38:08.130Z,4.42
2018-09-12T17:40:39.624Z,4.42
2018-09-12T17:43:10.578Z,3.72
2018-09-12T17:45:41.105Z,3.85
2018-09-12T17:48:11.836Z,7.10
2018-09-12T17:50:43.338Z,5.35
2018-09-12T17:53:14.734Z,4.85
2018-09-12T17:55:46.052Z,4.03
2018-09-12T17:58:16.930Z,4.37
2018-09-12T18:00:47.976Z,6.35
2018-09-12T18:03:18.870Z,4.33
2018-09-12T18:05:49.732Z,5.20
2018-09-12T18:08:21.876Z,4.97
2018-09-12T18:10:53.949Z,4.85
2018-09-12T18:13:24.156Z,5.00
2018-09-12T18:15:55.194Z,5.65
2018-09-12T18:18:25.290Z,4.00
2018-09-12T18:20:55.418Z,5.60
2018-09-12T18:23:27.064Z,5.93
2018-09-12T18:26:01.528Z,4.33
2018-09-12T18:28:32.606Z,3.77
2018-09-12T18:31:03.390Z,6.05
2018-09-12T18:33:39.756Z,5.78
2018-09-12T18:36:10.540Z,5.90
2018-09-12T18:38:41.827Z,7.47
2018-09-12T18:41:12.403Z,5.85
2018-09-12T18:43:42.603Z,13.08
2018-09-12T18:46:12.806Z,6.05
2018-09-12T18:48:44.368Z,5.78
2018-09-12T18:51:15.497Z,6.40
2018-09-12T18:53:48.115Z,6.70
2018-09-12T18:56:19.942Z,6.80
2018-09-12T18:58:52.039Z,6.00
2018-09-12T19:01:33.203Z,6.70
2018-09-12T19:04:03.973Z,6.30
2018-09-12T19:06:34.005Z,9.63
2018-09-12T19:09:04.839Z,5.73
2018-09-12T19:11:36.126Z,7.22
2018-09-12T19:14:06.282Z,6.87
2018-09-12T19:16:37.531Z,7.78
2018-09-12T19:19:07.727Z,7.17
2018-09-12T19:21:38.909Z,10.15
2018-09-12T19:24:09.867Z,8.25
2018-09-12T19:26:40.836Z,8.08
2018-09-12T19:29:11.818Z,11.38
2018-09-12T19:31:42.730Z,7.55
2018-09-12T19:34:12.814Z,10.75
2018-09-12T19:36:43.933Z,10.08
2018-09-12T19:39:15.555Z,10.65
2018-09-12T19:41:46.341Z,9.00
2018-09-12T19:44:18.180Z,11.90
2018-09-12T19:46:49.567Z,11.90
2018-09-12T19:49:22.195Z,11.10
2018-09-12T19:51:52.891Z,14.05
2018-09-12T19:54:23.823Z,10.28
2018-09-12T19:56:54.141Z,8.85
2018-09-12T19:59:26.183Z,8.33
2018-09-12T20:01:56.774Z,9.83
2018-09-12T20:04:30.105Z,7.87
2018-09-12T20:07:01.611Z,7.83
2018-09-12T20:09:37.362Z,8.40
2018-09-12T20:12:09.215Z,9.33
2018-09-12T20:14:39.351Z,10.00
2018-09-12T20:17:09.776Z,9.28
2018-09-12T20:19:40.843Z,10.75
2018-09-12T20:22:11.831Z,8.43
2018-09-12T20:24:43.226Z,8.98
2018-09-12T20:27:13.326Z,8.83
2018-09-12T20:29:47.182Z,11.00
2018-09-12T20:32:17.405Z,10.43
2018-09-12T20:34:48.932Z,12.58
2018-09-12T20:37:19.363Z,22.50
2018-09-12T20:39:49.568Z,10.68
2018-09-12T20:42:19.948Z,10.55
2018-09-12T20:44:50.109Z,12.07
2018-09-12T20:47:23.803Z,9.20
2018-09-12T20:49:54.932Z,8.68
2018-09-12T20:52:26.110Z,12.07
2018-09-12T20:54:56.191Z,10.48
2018-09-12T20:57:26.482Z,8.50
2018-09-12T20:59:57.060Z,13.50
2018-09-12T21:02:28.105Z,11.48
2018-09-12T21:04:59.392Z,9.60
2018-09-12T21:07:34.235Z,10.63
2018-09-12T21:10:06.128Z,11.45
2018-09-12T21:12:38.633Z,11.45
2018-09-12T21:15:10.382Z,11.28
2018-09-12T21:17:42.078Z,8.97
2018-09-12T21:20:12.225Z,11.50
2018-09-12T21:22:42.499Z,14.20
2018-09-12T21:25:13.806Z,12.98
2018-09-12T21:27:44.240Z,14.80
2018-09-12T21:30:14.964Z,12.90
2018-09-12T21:32:45.149Z,14.13
2018-09-12T21:35:16.430Z,10.70
2018-09-12T21:37:46.762Z,14.55
2018-09-12T21:40:24.574Z,15.85
2018-09-12T21:42:54.657Z,12.63
2018-09-12T21:45:28.285Z,14.23
2018-09-12T21:48:00.447Z,11.90
2018-09-12T21:50:30.585Z,10.93
2018-09-12T21:53:01.099Z,13.72
2018-09-12T21:55:31.353Z,12.20
2018-09-12T21:58:01.581Z,13.35
2018-09-12T22:00:32.445Z,13.00
2018-09-12T22:03:04.755Z,10.88
2018-09-12T22:05:35.444Z,11.97
2018-09-12T22:08:07.194Z,9.30
2018-09-12T22:10:38.321Z,16.27
2018-09-12T22:13:09.462Z,12.70
2018-09-12T22:15:39.654Z,12.17
2018-09-12T22:18:10.690Z,19.17
2018-09-12T22:20:40.842Z,13.20
2018-09-12T22:23:13.235Z,11.78
2018-09-12T22:25:44.949Z,10.47
2018-09-12T22:28:15.849Z,8.35
2018-09-12T22:30:45.878Z,11.85
2018-09-12T22:33:16.767Z,10.30
2018-09-12T22:35:47.684Z,9.20
2018-09-12T22:38:17.879Z,10.53
2018-09-12T22:40:48.275Z,13.97
2018-09-12T22:43:20.331Z,11.22
2018-09-12T22:45:51.277Z,11.75
2018-09-12T22:48:22.183Z,10.10
2018-09-12T22:50:52.357Z,10.05
2018-09-12T22:53:22.461Z,10.88
2018-09-12T22:55:53.094Z,13.00
2018-09-12T22:58:23.719Z,12.33
2018-09-12T23:00:53.837Z,9.05
2018-09-12T23:03:24.299Z,6.97
2018-09-12T23:05:54.304Z,9.00
2018-09-12T23:08:24.625Z,9.08
2018-09-12T23:10:54.991Z,7.87
2018-09-12T23:13:25.662Z,7.80
2018-09-12T23:15:56.496Z,9.63
2018-09-12T23:18:27.509Z,7.58
2018-09-12T23:20:57.615Z,6.10
2018-09-12T23:23:27.899Z,9.85
2018-09-12T23:25:58.137Z,11.03
2018-09-12T23:28:28.871Z,9.75
2018-09-12T23:30:59.875Z,8.53
2018-09-12T23:33:31.239Z,9.35
2018-09-12T23:36:02.926Z,7.80
2018-09-12T23:38:34.734Z,10.65
2018-09-12T23:41:07.129Z,11.10
2018-09-12T23:43:37.845Z,10.32
2018-09-12T23:46:09.805Z,8.05
2018-09-12T23:48:42.984Z,8.68
2018-09-12T23:51:14.158Z,8.78
2018-09-12T23:53:44.452Z,10.43
2018-09-12T23:56:16.098Z,10.05
2018-09-12T23:58:46.660Z,8.13
